Time;durP1;ratioP1;P1;durP2;ratioP2;P2;SDS_P1;SDS_P2;PMS_P1;PMS_P2;Temp;Humidity;BMP_temperature;BMP_pressure;BME280_temperature;BME280_humidity;BME280_pressure;Samples;Min_cycle;Max_cycle;Signal;HPM_P1;HPM_P2
2022/04/16 00:00:29;;;;;;;4.10;3.50;;;;;;;5.65;100.00;93814.44;2107350;28;20545;-89
2022/04/16 00:01:52;;;;;;;4.00;3.60;;;;;;;5.50;100.00;93813.56;2105892;28;20024;-89
2022/04/16 00:02:56;;;;;;;4.68;3.33;;;;;;;5.43;100.00;93810.84;2102136;28;20112;-90
2022/04/16 00:03:57;;;;;;;4.28;3.20;;;;;;;5.47;100.00;93816.94;2090843;28;20029;-87
2022/04/16 00:04:58;;;;;;;4.90;3.25;;;;;;;5.41;100.00;93815.00;2090859;28;20055;-87
2022/04/16 00:05:59;;;;;;;4.95;3.90;;;;;;;5.50;100.00;93816.22;2090598;28;20032;-89
2022/04/16 00:07:00;;;;;;;5.25;3.53;;;;;;;5.58;100.00;93813.63;2082414;28;20471;-89
2022/04/16 00:08:06;;;;;;;4.15;3.75;;;;;;;5.48;100.00;93804.44;2091002;28;20037;-87
2022/04/16 00:09:07;;;;;;;4.05;3.40;;;;;;;5.37;100.00;93801.72;2098877;28;20078;-88
2022/04/16 00:10:09;;;;;;;3.45;3.15;;;;;;;5.36;100.00;93808.16;2090758;28;20032;-88
2022/04/16 00:11:10;;;;;;;4.28;3.42;;;;;;;5.38;100.00;93805.13;2098760;28;20197;-88
2022/04/16 00:12:11;;;;;;;5.88;3.28;;;;;;;5.32;100.00;93803.94;2090690;28;20090;-87
2022/04/16 00:13:12;;;;;;;3.95;3.50;;;;;;;5.36;100.00;93810.78;2082161;28;20038;-88
2022/04/16 00:14:15;;;;;;;5.40;4.00;;;;;;;5.41;100.00;93809.69;2098558;28;20119;-88
2022/04/16 00:15:16;;;;;;;4.30;3.35;;;;;;;5.43;100.00;93808.19;2091431;28;20075;-89
2022/04/16 00:16:17;;;;;;;5.30;3.45;;;;;;;5.32;100.00;93812.66;2099064;28;20031;-88
2022/04/16 00:17:18;;;;;;;3.70;3.40;;;;;;;5.25;100.00;93807.28;2090511;28;20033;-88
2022/04/16 00:18:20;;;;;;;4.70;3.60;;;;;;;5.35;100.00;93808.50;2099096;28;20044;-87
2022/04/16 00:19:48;;;;;;;4.45;3.65;;;;;;;5.24;100.00;93805.75;2090935;28;20385;-87
2022/04/16 00:20:50;;;;;;;4.78;3.53;;;;;;;5.16;100.00;93804.16;2097756;28;20032;-88
2022/04/16 00:21:50;;;;;;;4.93;3.58;;;;;;;5.12;100.00;93811.31;2082556;28;20714;-88
2022/04/16 00:22:52;;;;;;;5.70;3.17;;;;;;;5.12;100.00;93809.41;2082282;28;20025;-88
2022/04/16 00:23:53;;;;;;;4.38;3.72;;;;;;;5.15;100.00;93810.59;2090351;28;20029;-89
2022/04/16 00:24:54;;;;;;;6.15;3.42;;;;;;;5.13;100.00;93810.94;2082430;28;20033;-88
2022/04/16 00:25:56;;;;;;;3.55;3.25;;;;;;;5.14;100.00;93812.47;2082130;28;20025;-88
2022/04/16 00:26:57;;;;;;;4.65;3.25;;;;;;;5.13;100.00;93804.88;2082635;28;20025;-88
2022/04/16 00:27:58;;;;;;;3.80;3.50;;;;;;;5.15;100.00;93805.28;2096656;28;20024;-89
2022/04/16 00:28:59;;;;;;;5.15;3.22;;;;;;;5.05;100.00;93804.81;2098964;28;20029;-88
2022/04/16 00:30:02;;;;;;;3.80;3.50;;;;;;;4.99;100.00;93800.19;2107431;28;20031;-90
2022/04/16 00:31:03;;;;;;;3.92;3.40;;;;;;;5.00;100.00;93805.16;2107433;28;20032;-88
2022/04/16 00:32:05;;;;;;;3.88;3.42;;;;;;;4.95;100.00;93804.69;2098805;28;20020;-88
2022/04/16 00:33:07;;;;;;;5.38;3.92;;;;;;;4.91;100.00;93809.94;2099128;28;20894;-88
2022/04/16 00:34:08;;;;;;;5.47;3.60;;;;;;;4.91;100.00;93801.25;2099098;28;20060;-87
2022/04/16 00:35:10;;;;;;;5.93;3.95;;;;;;;4.88;100.00;93802.75;2107339;28;20408;-89
2022/04/16 00:36:10;;;;;;;6.45;4.43;;;;;;;5.02;100.00;93807.44;2098990;28;20021;-88
2022/04/16 00:37:11;;;;;;;4.38;3.88;;;;;;;5.05;100.00;93796.09;2098892;28;20016;-89
2022/04/16 00:38:12;;;;;;;5.82;4.32;;;;;;;5.14;100.00;93801.13;2090551;28;20048;-88
2022/04/16 00:39:13;;;;;;;5.82;4.13;;;;;;;5.21;100.00;93801.16;2082458;28;20485;-87
2022/04/16 00:40:14;;;;;;;5.38;4.10;;;;;;;5.19;100.00;93801.53;2083037;28;20389;-86
2022/04/16 00:41:15;;;;;;;7.18;4.80;;;;;;;5.13;100.00;93797.69;2082869;28;20521;-87
2022/04/16 00:42:17;;;;;;;5.32;3.90;;;;;;;5.14;100.00;93798.47;2091250;28;20071;-88
2022/04/16 00:43:27;;;;;;;4.63;4.00;;;;;;;5.15;100.00;93798.09;2091673;28;20115;-87
2022/04/16 00:44:28;;;;;;;6.55;4.32;;;;;;;5.14;100.00;93798.47;2085606;28;20520;-87
2022/04/16 00:45:30;;;;;;;5.00;4.07;;;;;;;5.10;100.00;93810.91;2091449;28;20027;-87
2022/04/16 00:46:31;;;;;;;5.35;3.92;;;;;;;5.12;100.00;93804.13;2091390;28;20033;-87
2022/04/16 00:47:33;;;;;;;5.80;4.28;;;;;;;5.17;100.00;93806.44;2091571;28;20029;-88
2022/04/16 00:48:34;;;;;;;6.43;4.55;;;;;;;5.16;100.00;93804.16;2091068;28;20021;-86
2022/04/16 00:49:35;;;;;;;6.72;4.22;;;;;;;5.16;100.00;93809.44;2082449;28;20055;-86
2022/04/16 00:50:36;;;;;;;5.35;4.13;;;;;;;5.19;100.00;93803.44;2082232;28;20509;-87
2022/04/16 00:51:39;;;;;;;6.63;4.43;;;;;;;5.19;100.00;93798.13;2081924;28;20049;-88
2022/04/16 00:52:41;;;;;;;5.88;4.20;;;;;;;5.24;100.00;93800.44;2089752;28;20358;-89
2022/04/16 00:53:45;;;;;;;6.05;4.40;;;;;;;5.26;100.00;93800.84;2098340;28;20056;-88
2022/04/16 00:54:46;;;;;;;5.93;4.38;;;;;;;5.26;100.00;93804.25;2099106;28;20350;-88
2022/04/16 00:55:47;;;;;;;5.45;4.65;;;;;;;5.17;100.00;93803.03;2098525;28;20619;-88
2022/04/16 00:56:48;;;;;;;5.90;5.07;;;;;;;5.19;100.00;93806.84;2090624;28;20107;-87
2022/04/16 00:57:49;;;;;;;5.95;4.32;;;;;;;5.22;100.00;93811.44;2090802;28;20025;-88
2022/04/16 00:58:50;;;;;;;6.35;4.88;;;;;;;5.21;100.00;93809.88;2098553;28;20039;-89
2022/04/16 00:59:52;;;;;;;4.68;4.07;;;;;;;5.19;100.00;93804.19;2098522;28;20017;-88
2022/04/16 01:00:55;;;;;;;5.65;4.57;;;;;;;5.24;100.00;93805.75;2090574;28;20021;-87
2022/04/16 01:01:58;;;;;;;6.70;4.57;;;;;;;5.27;100.00;93808.44;2098736;28;20028;-88
2022/04/16 01:02:59;;;;;;;4.80;4.35;;;;;;;5.27;100.00;93799.72;2099023;28;20031;-89
2022/04/16 01:04:01;;;;;;;6.53;4.57;;;;;;;5.23;100.00;93807.63;2090399;28;20025;-88
2022/04/16 01:05:07;;;;;;;6.03;4.40;;;;;;;5.27;100.00;93800.50;2090613;28;20032;-88
2022/04/16 01:06:15;;;;;;;5.47;4.30;;;;;;;5.24;100.00;93805.75;2091762;28;20021;-88
2022/04/16 01:07:25;;;;;;;5.40;4.35;;;;;;;5.23;100.00;93805.00;2100829;28;20020;-88
2022/04/16 01:08:27;;;;;;;6.10;4.55;;;;;;;5.17;100.00;93806.44;2100140;28;20081;-88
2022/04/16 01:09:29;;;;;;;5.30;3.95;;;;;;;5.17;100.00;93803.78;2090631;28;20025;-89
2022/04/16 01:10:33;;;;;;;6.30;4.15;;;;;;;5.15;100.00;93805.28;2090900;28;20028;-87
2022/04/16 01:11:34;;;;;;;7.35;4.63;;;;;;;5.09;100.00;93799.53;2091287;28;20029;-89
2022/04/16 01:12:35;;;;;;;8.63;4.60;;;;;;;5.14;100.00;93809.06;2089981;28;20086;-88
2022/04/16 01:13:37;;;;;;;6.85;4.30;;;;;;;5.14;100.00;93803.78;2097993;28;20028;-87
2022/04/16 01:14:38;;;;;;;7.20;4.30;;;;;;;5.13;100.00;93804.88;2098341;28;20048;-88
2022/04/16 01:15:39;;;;;;;4.90;4.10;;;;;;;5.12;100.00;93803.34;2090379;28;20021;-88
2022/04/16 01:16:40;;;;;;;6.05;4.72;;;;;;;5.08;100.00;93808.63;2090358;28;20021;-88
2022/04/16 01:17:42;;;;;;;4.68;4.28;;;;;;;5.02;100.00;93802.88;2098497;28;20020;-89
2022/04/16 01:18:49;;;;;;;5.32;4.57;;;;;;;5.03;100.00;93806.28;2098418;28;20029;-88
2022/04/16 01:19:50;;;;;;;5.38;4.60;;;;;;;5.03;100.00;93804.41;2100248;28;20062;-88
2022/04/16 01:20:51;;;;;;;5.55;5.05;;;;;;;5.02;100.00;93804.78;2106881;28;20028;-86
2022/04/16 01:22:01;;;;;;;5.68;4.72;;;;;;;5.05;100.00;93804.06;2098470;28;20020;-87
2022/04/16 01:23:02;;;;;;;;;;;;;;;5.12;100.00;93800.72;2093255;28;20045;-85
2022/04/16 01:24:05;;;;;;;5.63;4.45;;;;;;;5.08;100.00;93797.25;2090056;28;19916;-88
2022/04/16 01:25:10;;;;;;;5.75;4.13;;;;;;;5.03;100.00;93801.75;2090816;28;20491;-89
2022/04/16 01:26:12;;;;;;;4.68;4.25;;;;;;;5.00;100.00;93807.00;2090068;28;20036;-88
2022/04/16 01:27:14;;;;;;;6.40;5.03;;;;;;;5.05;100.00;93801.41;2090640;28;20074;-88
2022/04/16 01:28:15;;;;;;;6.40;4.45;;;;;;;5.08;100.00;93794.59;2090289;28;20032;-89
2022/04/16 01:29:17;;;;;;;4.65;4.00;;;;;;;5.01;100.00;93793.41;2090194;28;20068;-89
2022/04/16 01:30:21;;;;;;;8.18;4.20;;;;;;;4.98;100.00;93799.44;2098453;28;20485;-89
2022/04/16 01:31:22;;;;;;;6.95;4.35;;;;;;;5.01;100.00;93797.97;2090571;28;20017;-88
2022/04/16 01:32:23;;;;;;;5.28;4.10;;;;;;;4.97;100.00;93795.28;2081944;28;20025;-87
2022/04/16 01:33:25;;;;;;;4.95;4.50;;;;;;;4.93;100.00;93802.41;2082165;28;20045;-89
2022/04/16 01:34:26;;;;;;;5.10;4.32;;;;;;;4.96;100.00;93803.56;2083814;28;20022;-88
2022/04/16 01:35:27;;;;;;;6.03;4.10;;;;;;;4.92;100.00;93800.13;2098491;28;20021;-88
2022/04/16 01:36:30;;;;;;;6.13;4.63;;;;;;;4.97;100.00;93799.81;2098381;28;20095;-89
2022/04/16 01:37:34;;;;;;;5.13;4.53;;;;;;;5.00;100.00;93801.72;2098627;28;20099;-87
2022/04/16 01:38:35;;;;;;;6.85;4.72;;;;;;;5.00;100.00;93799.06;2090900;28;20029;-89
2022/04/16 01:39:35;;;;;;;5.20;4.50;;;;;;;4.94;100.00;93798.63;2090114;28;20048;-89
2022/04/16 01:40:38;;;;;;;6.50;4.70;;;;;;;4.94;100.00;93798.63;2090413;28;20025;-89
2022/04/16 01:41:40;;;;;;;7.18;4.78;;;;;;;4.93;100.00;93799.75;2098655;28;20024;-89
2022/04/16 01:43:13;;;;;;;5.45;4.53;;;;;;;4.93;100.00;93801.66;2098586;28;20089;-89
2022/04/16 01:44:14;;;;;;;5.50;4.57;;;;;;;4.96;100.00;93800.91;2099046;28;20020;-87
2022/04/16 01:45:18;;;;;;;5.03;4.40;;;;;;;4.91;100.00;93801.25;2090291;28;20024;-88
2022/04/16 01:46:19;;;;;;;4.78;4.28;;;;;;;4.85;100.00;93802.69;2090955;28;20111;-89
2022/04/16 01:47:19;;;;;;;5.88;4.40;;;;;;;4.82;100.00;93803.41;2090208;28;20755;-88
2022/04/16 01:48:21;;;;;;;5.18;4.57;;;;;;;4.72;100.00;93802.19;2098860;28;20035;-88
2022/04/16 01:49:22;;;;;;;5.05;4.55;;;;;;;4.75;100.00;93804.88;2107237;28;20050;-88
2022/04/16 01:50:23;;;;;;;5.07;4.45;;;;;;;4.72;100.00;93802.94;2106757;28;20027;-88
2022/04/16 01:51:24;;;;;;;6.20;4.78;;;;;;;4.67;100.00;93803.25;2106842;28;20031;-87
2022/04/16 01:52:26;;;;;;;5.80;4.75;;;;;;;4.77;100.00;93805.25;2098369;28;20029;-89
2022/04/16 01:53:27;;;;;;;5.80;4.60;;;;;;;4.72;100.00;93808.22;2090475;28;20025;-88
2022/04/16 01:54:28;;;;;;;6.65;4.43;;;;;;;4.63;100.00;93797.16;2106662;28;20090;-88
2022/04/16 01:55:29;;;;;;;5.80;4.68;;;;;;;4.54;100.00;93797.44;2098191;28;20058;-88
2022/04/16 01:56:30;;;;;;;7.35;5.10;;;;;;;4.63;100.00;93801.69;2098227;28;20070;-88
2022/04/16 01:57:32;;;;;;;4.65;4.25;;;;;;;4.59;100.00;93795.59;2106689;28;20039;-87
2022/04/16 01:58:33;;;;;;;5.78;4.55;;;;;;;4.42;100.00;93799.53;2096952;28;20058;-88
2022/04/16 01:59:34;;;;;;;5.03;4.25;;;;;;;4.35;100.00;93794.19;2098554;28;20063;-89
2022/04/16 02:00:35;;;;;;;4.88;4.43;;;;;;;4.40;100.00;93794.63;2098326;28;20442;-88
2022/04/16 02:01:36;;;;;;;5.00;4.57;;;;;;;4.30;100.00;93792.59;2098192;28;20110;-89
2022/04/16 02:02:37;;;;;;;4.70;4.20;;;;;;;4.29;100.00;93791.06;2098257;28;20028;-89
2022/04/16 02:03:59;;;;;;;4.20;3.80;;;;;;;4.22;100.00;93794.38;2089777;28;20076;-89
2022/04/16 02:05:00;;;;;;;6.03;4.53;;;;;;;4.09;100.00;93792.31;2095912;28;20048;-91
2022/04/16 02:06:01;;;;;;;5.53;4.57;;;;;;;4.13;100.00;93796.53;2090149;28;20549;-88
2022/04/16 02:07:02;;;;;;;5.65;3.80;;;;;;;4.19;100.00;93789.06;2106686;28;20023;-87
2022/04/16 02:08:04;;;;;;;4.82;4.18;;;;;;;4.15;100.00;93794.28;2114936;28;20070;-88
2022/04/16 02:09:05;;;;;;;7.03;4.38;;;;;;;4.21;100.00;93792.09;2098679;28;20060;-89
2022/04/16 02:10:07;;;;;;;4.68;3.83;;;;;;;4.25;100.00;93790.25;2106924;28;20024;-90
2022/04/16 02:12:42;;;;;;;4.32;3.75;;;;;;;4.16;100.00;93784.47;2132692;27;20214;-82
2022/04/16 02:13:44;;;;;;;4.40;3.40;;;;;;;4.00;100.00;93790.69;2112215;28;20055;-82
2022/04/16 02:14:45;;;;;;;4.28;3.88;;;;;;;4.01;100.00;93789.56;2096778;28;20512;-83
2022/04/16 02:15:46;;;;;;;6.68;3.85;;;;;;;4.01;100.00;93794.09;2104838;28;20028;-85
2022/04/16 02:16:50;;;;;;;6.15;4.43;;;;;;;4.11;100.00;93784.78;2113261;28;20024;-84
2022/04/16 02:17:51;;;;;;;4.85;4.22;;;;;;;4.26;100.00;93791.81;2105154;28;20417;-83
2022/04/16 02:18:52;;;;;;;4.95;4.05;;;;;;;4.16;100.00;93789.75;2096641;28;20074;-82
2022/04/16 02:19:53;;;;;;;4.40;3.88;;;;;;;3.97;100.00;93783.47;2104916;28;20069;-84
2022/04/16 02:20:54;;;;;;;5.13;4.20;;;;;;;3.98;100.00;93786.88;2103565;28;20024;-83
2022/04/16 02:21:55;;;;;;;6.00;4.28;;;;;;;3.83;100.00;93782.50;2092744;28;20024;-85
2022/04/16 02:22:56;;;;;;;5.07;4.10;;;;;;;3.84;100.00;93782.16;2095278;28;20032;-82
2022/04/16 02:23:57;;;;;;;5.53;3.95;;;;;;;3.83;100.00;93791.19;2103851;28;20047;-86
2022/04/16 02:25:04;;;;;;;5.22;4.32;;;;;;;3.89;100.00;93778.44;2104850;28;20028;-84
2022/04/16 02:26:07;;;;;;;5.05;4.55;;;;;;;3.68;100.00;93779.63;2089465;28;20027;-83
2022/04/16 02:27:08;;;;;;;4.47;3.83;;;;;;;3.76;100.00;93785.81;2097173;28;20780;-85
2022/04/16 02:28:09;;;;;;;6.25;4.20;;;;;;;3.72;100.00;93780.44;2096474;28;20069;-82
2022/04/16 02:29:11;;;;;;;4.40;4.00;;;;;;;3.71;100.00;93784.22;2088324;28;20382;-85
2022/04/16 02:30:16;;;;;;;4.90;4.40;;;;;;;3.80;100.00;93786.63;2096434;28;20509;-85
2022/04/16 02:31:17;;;;;;;4.47;3.92;;;;;;;3.71;100.00;93789.50;2096782;28;20082;-84
2022/04/16 02:32:18;;;;;;;4.20;3.85;;;;;;;3.64;100.00;93778.81;2088054;28;20025;-83
2022/04/16 02:33:19;;;;;;;4.38;3.97;;;;;;;3.58;100.00;93784.78;2088326;28;20029;-86
2022/04/16 02:34:21;;;;;;;5.28;4.32;;;;;;;3.53;100.00;93786.59;2088141;28;20032;-85
2022/04/16 02:35:22;;;;;;;5.72;4.60;;;;;;;3.59;100.00;93783.66;2096474;28;20065;-83
2022/04/16 02:36:26;;;;;;;4.55;4.15;;;;;;;3.67;100.00;93780.00;2096333;28;20081;-83
2022/04/16 02:37:27;;;;;;;4.47;4.00;;;;;;;3.66;100.00;93779.25;2088458;28;20032;-83
2022/04/16 02:38:28;;;;;;;5.57;4.20;;;;;;;3.56;100.00;93785.13;2096193;28;20462;-84
2022/04/16 02:39:29;;;;;;;4.93;3.92;;;;;;;3.44;100.00;93780.03;2096324;28;20031;-85
2022/04/16 02:40:30;;;;;;;5.18;4.53;;;;;;;3.34;100.00;93781.41;2096406;28;20071;-82
2022/04/16 02:41:31;;;;;;;5.75;4.20;;;;;;;3.39;100.00;93780.34;2113149;28;20027;-83
2022/04/16 02:42:36;;;;;;;5.43;4.50;;;;;;;3.43;100.00;93781.91;2096179;28;20024;-84
2022/04/16 02:43:37;;;;;;;4.30;3.65;;;;;;;3.36;100.00;93776.50;2096842;28;20075;-83
2022/04/16 02:47:24;;;;;;;5.45;4.60;;;;;;;3.21;100.00;93787.97;2109293;28;20024;-83
2022/04/16 02:48:25;;;;;;;6.03;4.10;;;;;;;3.17;100.00;93787.91;2112718;28;20078;-83
2022/04/16 02:49:26;;;;;;;5.82;4.65;;;;;;;3.15;100.00;93784.84;2112360;28;20032;-82
2022/04/16 02:50:28;;;;;;;6.82;4.35;;;;;;;3.11;100.00;93789.28;2103902;28;20451;-82
2022/04/16 02:51:29;;;;;;;4.35;3.95;;;;;;;3.16;100.00;93790.88;2104377;28;20516;-83
2022/04/16 02:52:34;;;;;;;4.40;4.00;;;;;;;3.18;100.00;93783.38;2092155;28;20053;-82
2022/04/16 02:53:35;;;;;;;5.10;4.32;;;;;;;3.15;100.00;93786.72;2102522;28;20043;-85
2022/04/16 02:54:37;;;;;;;4.30;3.90;;;;;;;3.09;100.00;93782.84;2095598;28;20020;-85
2022/04/16 02:55:38;;;;;;;4.82;4.32;;;;;;;3.10;100.00;93797.56;2095690;28;20020;-85
2022/04/16 02:56:38;;;;;;;6.28;4.07;;;;;;;3.18;100.00;93786.03;2095449;28;20028;-84
2022/04/16 02:57:39;;;;;;;5.57;4.10;;;;;;;3.13;100.00;93786.31;2095540;28;20032;-85
2022/04/16 02:58:41;;;;;;;4.63;4.18;;;;;;;3.04;100.00;93783.91;2091324;28;20048;-83
2022/04/16 02:59:42;;;;;;;4.85;4.35;;;;;;;3.03;100.00;93788.44;2096313;28;20039;-83
2022/04/16 03:00:43;;;;;;;4.63;4.20;;;;;;;2.95;100.00;93786.00;2096043;28;20020;-83
2022/04/16 03:01:44;;;;;;;6.07;4.85;;;;;;;2.90;100.00;93783.66;2094972;28;20454;-82
2022/04/16 03:02:45;;;;;;;5.13;4.47;;;;;;;3.04;100.00;93786.56;2104443;28;20022;-83
2022/04/16 03:03:46;;;;;;;4.07;3.75;;;;;;;3.14;100.00;93787.84;2096154;28;20082;-83
2022/04/16 03:04:49;;;;;;;5.05;4.50;;;;;;;2.98;100.00;93785.28;2096222;28;20058;-83
2022/04/16 03:05:50;;;;;;;5.75;4.20;;;;;;;2.92;100.00;93784.81;2097632;28;20028;-82
2022/04/16 03:06:51;;;;;;;4.70;4.30;;;;;;;2.96;100.00;93777.72;2095906;28;20029;-82
2022/04/16 03:07:52;;;;;;;4.65;4.20;;;;;;;3.16;100.00;93769.75;2104162;28;20031;-83
2022/04/16 03:08:53;;;;;;;5.97;4.45;;;;;;;3.17;100.00;93771.28;2090620;28;20032;-84
2022/04/16 03:09:54;;;;;;;6.32;4.43;;;;;;;3.02;100.00;93772.91;2100185;28;20031;-82
2022/04/16 03:10:55;;;;;;;6.93;4.72;;;;;;;3.01;100.00;93772.16;2095918;28;20052;-83
2022/04/16 03:11:56;;;;;;;6.10;4.88;;;;;;;2.83;100.00;93767.69;2087549;28;20028;-82
2022/04/16 03:12:57;;;;;;;6.13;5.47;;;;;;;2.81;100.00;93775.19;2098404;28;20055;-83
2022/04/16 03:17:31;;;;;;;7.38;6.00;;;;;;;2.75;100.00;93770.19;2092739;28;20115;-83
2022/04/16 03:18:00;;;;;;;8.35;7.55;;;;;;;3.01;100.00;93766.88;2112617;28;20400;-85
2022/04/16 03:19:01;;;;;;;8.63;7.50;;;;;;;2.97;100.00;93770.56;2104346;28;20025;-83
2022/04/16 03:20:07;;;;;;;7.93;7.22;;;;;;;2.90;100.00;93773.88;2096128;28;20087;-83
2022/04/16 03:21:10;;;;;;;7.82;7.03;;;;;;;2.87;100.00;93774.56;2105597;28;20021;-83
2022/04/16 03:22:12;;;;;;;6.90;6.22;;;;;;;2.84;100.00;93769.22;2104263;28;20014;-83
2022/04/16 03:23:13;;;;;;;7.60;6.78;;;;;;;2.77;100.00;93772.50;2087866;28;20028;-83
2022/04/16 03:24:15;;;;;;;8.20;6.20;;;;;;;2.83;100.00;93771.09;2081760;28;20025;-84
2022/04/16 03:25:16;;;;;;;7.47;6.68;;;;;;;2.80;100.00;93774.41;2082153;28;20025;-85
2022/04/16 03:26:17;;;;;;;7.38;6.68;;;;;;;2.72;100.00;93772.75;2089582;28;20031;-82
2022/04/16 03:27:18;;;;;;;6.55;5.95;;;;;;;2.70;100.00;93770.47;2082247;28;20021;-84
2022/04/16 03:28:19;;;;;;;6.43;5.80;;;;;;;2.71;100.00;93773.88;2082018;28;20061;-81
2022/04/16 03:29:20;;;;;;;8.10;5.72;;;;;;;2.78;100.00;93771.38;2083142;28;20033;-83
2022/04/16 03:30:23;;;;;;;6.28;5.13;;;;;;;2.82;100.00;93769.56;2098600;28;20051;-85
2022/04/16 03:31:24;;;;;;;6.90;5.80;;;;;;;2.88;100.00;93773.44;2098398;28;20128;-83
2022/04/16 03:32:25;;;;;;;8.23;5.35;;;;;;;2.86;100.00;93770.41;2090341;28;20463;-83
2022/04/16 03:33:26;;;;;;;6.10;5.50;;;;;;;2.85;100.00;93765.44;2100146;28;20033;-84
2022/04/16 03:34:27;;;;;;;8.68;5.28;;;;;;;2.89;100.00;93771.56;2090302;28;20418;-83
2022/04/16 03:35:28;;;;;;;8.43;5.80;;;;;;;2.89;100.00;93774.19;2081981;28;20120;-83
2022/04/16 03:36:30;;;;;;;6.47;5.60;;;;;;;2.88;100.00;93772.66;2090283;28;20033;-85
2022/04/16 03:37:33;;;;;;;5.78;4.78;;;;;;;2.80;100.00;93771.78;2098012;28;20032;-85
2022/04/16 03:38:36;;;;;;;6.15;5.28;;;;;;;2.96;100.00;93775.09;2090695;28;20029;-82
2022/04/16 03:39:37;;;;;;;6.22;5.45;;;;;;;3.02;100.00;93776.31;2090417;28;20070;-85
2022/04/16 03:40:40;;;;;;;7.65;5.13;;;;;;;2.99;100.00;93784.97;2098634;28;20105;-84
2022/04/16 03:41:41;;;;;;;5.95;5.10;;;;;;;3.04;100.00;93778.63;2090514;28;20060;-84
2022/04/16 03:42:50;;;;;;;7.15;5.38;;;;;;;3.11;100.00;93783.25;2082138;28;20029;-82
2022/04/16 03:43:51;;;;;;;7.18;5.00;;;;;;;3.10;100.00;93779.09;2075929;28;20104;-84
2022/04/16 03:44:52;;;;;;;6.10;4.75;;;;;;;3.05;100.00;93787.31;2082206;28;20079;-83
2022/04/16 03:45:52;;;;;;;6.57;5.28;;;;;;;3.10;100.00;93790.41;2098520;28;20027;-82
2022/04/16 03:46:53;;;;;;;7.47;5.55;;;;;;;3.09;100.00;93785.50;2098460;28;20020;-83
2022/04/16 03:47:56;;;;;;;5.60;4.88;;;;;;;3.07;100.00;93787.72;2090290;28;20024;-84
2022/04/16 03:48:59;;;;;;;7.25;5.13;;;;;;;3.09;100.00;93786.25;2098380;28;20031;-84
2022/04/16 03:50:00;;;;;;;6.97;5.57;;;;;;;3.11;100.00;93783.25;2089771;28;20040;-82
2022/04/16 03:51:01;;;;;;;8.93;5.50;;;;;;;3.15;100.00;93786.72;2081933;28;20037;-84
2022/04/16 03:52:03;;;;;;;10.70;5.72;;;;;;;3.21;100.00;93786.09;2082133;28;20029;-84
2022/04/16 03:53:04;;;;;;;6.38;5.40;;;;;;;3.26;100.00;93790.31;2089052;28;20091;-83
2022/04/16 04:00:05;;;;;;;5.25;4.20;;;;;;;3.41;100.00;93802.63;2101445;28;20032;-84
2022/04/16 04:01:06;;;;;;;5.18;4.68;;;;;;;3.40;100.00;93806.41;2106648;28;20027;-84
2022/04/16 04:02:07;;;;;;;5.30;4.80;;;;;;;3.49;100.00;93793.72;2089567;28;20520;-83
2022/04/16 04:03:08;;;;;;;6.32;4.95;;;;;;;3.39;100.00;93789.03;2081978;28;20025;-84
2022/04/16 04:04:10;;;;;;;5.50;5.00;;;;;;;3.34;100.00;93794.59;2090019;28;20064;-84
2022/04/16 04:05:12;;;;;;;5.45;4.85;;;;;;;3.30;100.00;93803.59;2097918;28;20024;-84
2022/04/16 04:06:12;;;;;;;6.90;4.93;;;;;;;3.30;100.00;93799.06;2081865;28;20707;-84
2022/04/16 04:07:13;;;;;;;5.55;4.35;;;;;;;3.29;100.00;93797.50;2090096;28;20056;-83
2022/04/16 04:08:16;;;;;;;5.63;4.82;;;;;;;3.27;100.00;93787.31;2073639;28;20111;-84
2022/04/16 04:09:17;;;;;;;5.90;4.82;;;;;;;3.20;100.00;93789.06;2082308;28;20429;-82
2022/04/16 04:10:18;;;;;;;5.15;4.63;;;;;;;3.14;100.00;93788.59;2090066;28;20047;-84
2022/04/16 04:11:19;;;;;;;5.28;4.78;;;;;;;3.12;100.00;93792.72;2098301;28;20111;-83
2022/04/16 04:12:20;;;;;;;5.55;4.35;;;;;;;3.18;100.00;93792.06;2089774;28;20052;-81
2022/04/16 04:13:23;;;;;;;4.95;4.38;;;;;;;3.09;100.00;93786.25;2089710;28;20087;-82
2022/04/16 04:14:24;;;;;;;6.65;5.07;;;;;;;3.10;100.00;93797.56;2083534;28;20514;-85
2022/04/16 04:15:27;;;;;;;5.82;5.03;;;;;;;3.00;100.00;93802.31;2090155;28;20029;-84
2022/04/16 04:16:28;;;;;;;4.85;4.43;;;;;;;3.03;100.00;93799.00;2098569;28;20836;-82
2022/04/16 04:17:29;;;;;;;6.13;4.47;;;;;;;3.06;100.00;93802.78;2098291;28;20037;-84
2022/04/16 04:18:30;;;;;;;4.90;4.43;;;;;;;3.04;100.00;93797.13;2092224;28;20127;-84
2022/04/16 04:19:31;;;;;;;5.63;5.13;;;;;;;3.02;100.00;93804.59;2090059;28;20099;-85
2022/04/16 04:20:36;;;;;;;4.80;4.38;;;;;;;3.10;100.00;93805.50;2081834;28;20032;-82
2022/04/16 04:21:37;;;;;;;5.38;4.88;;;;;;;3.07;100.00;93800.91;2090631;28;20110;-83
2022/04/16 04:22:38;;;;;;;4.95;4.55;;;;;;;3.03;100.00;93799.00;2089823;28;20016;-84
2022/04/16 04:23:39;;;;;;;7.30;5.10;;;;;;;3.07;100.00;93804.31;2073654;28;20034;-86
2022/04/16 04:24:41;;;;;;;6.15;5.30;;;;;;;3.12;100.00;93800.66;2089473;28;20569;-84
2022/04/16 04:25:41;;;;;;;7.10;5.55;;;;;;;3.02;100.00;93801.97;2088543;28;20020;-83
2022/04/16 04:26:42;;;;;;;6.60;5.45;;;;;;;3.08;100.00;93802.47;2086122;28;20052;-85
2022/04/16 04:27:44;;;;;;;6.85;5.53;;;;;;;2.98;100.00;93801.13;2081853;28;20025;-83
2022/04/16 04:28:45;;;;;;;6.30;5.45;;;;;;;3.00;100.00;93799.69;2081863;28;20069;-84
2022/04/16 04:29:45;;;;;;;6.20;5.60;;;;;;;2.94;100.00;93801.09;2081669;28;20071;-85
2022/04/16 04:30:46;;;;;;;6.43;5.60;;;;;;;2.99;100.00;93797.41;2089984;28;20444;-84
2022/04/16 04:31:47;;;;;;;7.03;5.93;;;;;;;3.02;100.00;93805.38;2089662;28;20021;-84
2022/04/16 04:32:48;;;;;;;7.28;5.85;;;;;;;2.97;100.00;93791.69;2081722;28;20059;-85
2022/04/16 04:33:49;;;;;;;6.68;5.90;;;;;;;2.95;100.00;93802.63;2090064;28;20035;-85
2022/04/16 04:34:50;;;;;;;7.72;6.65;;;;;;;2.94;100.00;93801.09;2089827;28;20021;-86
2022/04/16 04:35:51;;;;;;;7.07;6.38;;;;;;;2.88;100.00;93802.47;2080866;28;20417;-81
2022/04/16 04:36:52;;;;;;;7.82;6.75;;;;;;;2.91;100.00;93798.38;2081633;28;20060;-86
2022/04/16 04:37:54;;;;;;;9.43;6.75;;;;;;;2.99;100.00;93800.81;2081052;28;20470;-85
2022/04/16 04:38:55;;;;;;;9.23;6.82;;;;;;;2.98;100.00;93803.78;2090143;28;20031;-84
2022/04/16 04:39:56;;;;;;;7.93;6.63;;;;;;;3.07;100.00;93806.19;2098227;28;20507;-83
2022/04/16 04:41:04;;;;;;;7.18;6.45;;;;;;;3.00;100.00;93804.97;2089776;28;20083;-84
2022/04/16 04:42:05;;;;;;;7.40;6.70;;;;;;;2.91;100.00;93801.78;2092075;28;20112;-83
2022/04/16 04:43:06;;;;;;;7.80;6.60;;;;;;;2.88;100.00;93799.84;2098049;28;20492;-84
2022/04/16 04:44:07;;;;;;;7.45;6.70;;;;;;;2.91;100.00;93795.75;2081550;28;20022;-84
2022/04/16 04:45:13;;;;;;;9.00;7.00;;;;;;;2.93;100.00;93798.78;2081669;28;20033;-82
2022/04/16 04:46:14;;;;;;;7.38;6.00;;;;;;;2.91;100.00;93799.16;2082982;28;20017;-83
2022/04/16 04:47:15;;;;;;;8.20;6.03;;;;;;;2.88;100.00;93801.72;2081516;28;20410;-83
2022/04/16 04:48:16;;;;;;;6.70;5.38;;;;;;;2.90;100.00;93796.88;2089806;28;20032;-84
2022/04/16 04:49:17;;;;;;;6.18;5.35;;;;;;;2.93;100.00;93796.16;2089655;28;20025;-83
2022/04/16 04:50:18;;;;;;;7.78;5.47;;;;;;;2.93;100.00;93801.44;2089587;28;20052;-82
2022/04/16 04:51:19;;;;;;;6.10;5.20;;;;;;;2.99;100.00;93800.81;2089883;28;20025;-85
2022/04/16 04:52:29;;;;;;;5.50;4.82;;;;;;;3.04;100.00;93802.41;2089761;28;20125;-84
2022/04/16 04:53:30;;;;;;;5.07;4.68;;;;;;;3.09;100.00;93815.31;2091055;28;20045;-85
2022/04/16 04:54:31;;;;;;;5.85;5.15;;;;;;;3.19;100.00;93814.72;2083654;28;20049;-84
2022/04/16 04:55:32;;;;;;;5.90;5.03;;;;;;;3.16;100.00;93815.44;2089769;28;20075;-85
2022/04/16 04:56:34;;;;;;;6.90;4.53;;;;;;;3.18;100.00;93812.44;2095355;28;20028;-82
2022/04/16 04:57:35;;;;;;;5.80;5.20;;;;;;;3.21;100.00;93817.03;2090033;28;20116;-83
2022/04/16 04:58:36;;;;;;;5.57;4.90;;;;;;;3.16;100.00;93806.72;2098098;28;20359;-83
2022/04/16 04:59:37;;;;;;;7.05;4.60;;;;;;;3.07;100.00;93808.84;2081437;28;20033;-84
2022/04/16 05:00:38;;;;;;;5.30;4.78;;;;;;;3.13;100.00;93805.56;2081643;28;20059;-82
2022/04/16 05:01:39;;;;;;;5.60;4.93;;;;;;;3.30;100.00;93807.00;2080869;28;20033;-84
2022/04/16 05:02:49;;;;;;;7.60;4.82;;;;;;;3.28;100.00;93819.78;2081605;28;20461;-83
2022/04/16 05:03:50;;;;;;;6.85;5.00;;;;;;;3.28;100.00;93819.78;2089896;28;20047;-84
2022/04/16 05:04:51;;;;;;;5.75;5.07;;;;;;;3.25;100.00;93821.25;2078310;28;20025;-84
2022/04/16 05:05:52;;;;;;;6.65;5.53;;;;;;;3.27;100.00;93819.00;2081378;28;20047;-82